Taiseimaru — JL6483 — position and weather

sailwx.info

Track history (hours):
 
Tides and Currents Weather Stations Pressure Air Temp Water Temp Dewpoint Dewpoint Depression Visibility Wind Speed Wind Dir Waves Ship Positions

Taiseimaru

Last reported at 2017-Jan-21 05:24 UTC. Time now 2017-Jan-24 11:23 UTC.
Position N 34°04' E 134°59'.

Length 84 m; draft 4.7 m.

Type: Cargo ship. MMSI: 431500568.

Date/timePositionNaut miles runAvg speedWind from/ knotsBaromVisibWave heightAir tempDewpointWater temp
2017-Jan-21 05:24N 34°04' E 134°59'1112.4
2017-Jan-21 04:33N 34°14' E 135°05'2 2.1
2017-Jan-21 03:32N 34°14' E 135°08'0 0.0
2017-Jan-21 02:26N 34°14' E 135°08'0 0.0
2017-Jan-21 01:26N 34°14' E 135°08'0 0.0
2017-Jan-21 00:32N 34°14' E 135°08'0 0.0
2017-Jan-20 23:32N 34°14' E 135°08'0 0.0
2017-Jan-20 22:33N 34°14' E 135°08'4 3.9
2017-Jan-20 21:33N 34°10' E 135°08'0 0.2
2017-Jan-20 20:33N 34°10' E 135°09'0 0.0
2017-Jan-20 19:30N 34°10' E 135°09'0 0.0
2017-Jan-20 18:33N 34°10' E 135°09'0 0.0
2017-Jan-20 17:33N 34°10' E 135°09'0 0.0
2017-Jan-20 16:33N 34°10' E 135°09'0 0.0
2017-Jan-20 15:30N 34°10' E 135°09'0 0.0
2017-Jan-20 14:27N 34°10' E 135°09'1 0.7
2017-Jan-20 13:33N 34°10' E 135°08'4 4.3
2017-Jan-20 12:33N 34°14' E 135°07'1110.1
2017-Jan-20 11:30N 34°05' E 134°60'  
2017-Jan-18 03:31N 34°05' E 134°60'1111.0
2017-Jan-18 02:33N 34°14' E 135°07'1 1.1
2017-Jan-18 01:32N 34°14' E 135°08'0 0.0
2017-Jan-18 00:32N 34°14' E 135°08'0 0.0
2017-Jan-17 23:32N 34°14' E 135°08'0 0.0
2017-Jan-17 22:32N 34°14' E 135°08'0 0.0
2017-Jan-17 21:32N 34°14' E 135°08'0 0.0
2017-Jan-17 20:32N 34°14' E 135°08'0 0.0
2017-Jan-17 19:32N 34°14' E 135°08'0 0.0
2017-Jan-17 18:32N 34°14' E 135°08'0 0.0
2017-Jan-17 17:32N 34°14' E 135°08'1 1.2
2017-Jan-17 16:33N 34°14' E 135°07'1 1.3
2017-Jan-17 15:33N 34°15' E 135°05'0 0.0
2017-Jan-17 14:30N 34°15' E 135°05'0 0.0
2017-Jan-17 13:12N 34°15' E 135°05'0 0.0
2017-Jan-17 12:33N 34°15' E 135°05'0 0.1
2017-Jan-17 11:33N 34°15' E 135°05'7 6.7
2017-Jan-17 10:33N 34°09' E 135°02'7 0.2
2017-Jan-16 02:34N 34°03' E 134°58'1212.1
2017-Jan-16 01:33N 34°13' E 135°05'3 2.6
2017-Jan-16 00:32N 34°14' E 135°08'0 0.0
2017-Jan-15 23:32N 34°14' E 135°08'0 0.0
2017-Jan-15 22:32N 34°14' E 135°08'0 0.0
2017-Jan-15 21:32N 34°14' E 135°08'0 0.0
2017-Jan-15 20:32N 34°14' E 135°08'0 0.0
2017-Jan-15 19:32N 34°14' E 135°08'0 0.0
2017-Jan-15 18:32N 34°14' E 135°08'0 0.0
2017-Jan-15 17:32N 34°14' E 135°08'0 0.0
2017-Jan-15 16:32N 34°14' E 135°08'0 0.3
2017-Jan-15 15:33N 34°14' E 135°08'2 1.6
2017-Jan-15 14:31N 34°15' E 135°06'0 0.0
2017-Jan-15 13:34N 34°15' E 135°06'0 0.0
2017-Jan-15 12:24N 34°15' E 135°06'0 0.0
2017-Jan-15 11:33N 34°15' E 135°06'0 0.0
2017-Jan-15 10:33N 34°15' E 135°06'0 0.0
2017-Jan-15 09:30N 34°15' E 135°06'0 0.0
2017-Jan-15 08:33N 34°15' E 135°06'0 0.0
2017-Jan-15 07:30N 34°15' E 135°06'0 0.0
2017-Jan-15 06:24N 34°15' E 135°06'0 0.1
2017-Jan-15 05:33N 34°15' E 135°06'0 0.0
2017-Jan-15 04:27N 34°15' E 135°06'0 0.0
2017-Jan-15 03:30N 34°15' E 135°06'0 0.0
2017-Jan-15 02:33N 34°15' E 135°06'0 0.0
2017-Jan-15 01:33N 34°15' E 135°06'2 2.1
2017-Jan-15 00:33N 34°13' E 135°07'1 0.9
2017-Jan-14 23:33N 34°13' E 135°08'3 3.0
2017-Jan-14 22:33N 34°15' E 135°06'0 0.1
2017-Jan-14 21:32N 34°15' E 135°06'0 0.0
2017-Jan-14 20:32N 34°15' E 135°06'0 0.0
2017-Jan-14 19:32N 34°15' E 135°06'0 0.0
2017-Jan-14 18:29N 34°15' E 135°06'0 0.0
2017-Jan-14 17:34N 34°15' E 135°06'8 8.0
2017-Jan-14 16:33N 34°08' E 135°01'4 0.1
2017-Jan-13 07:29N 34°04' E 134°59'1212.4
2017-Jan-13 06:33N 34°14' E 135°05'2 2.2
2017-Jan-13 05:32N 34°14' E 135°08'0 0.0
2017-Jan-13 04:32N 34°14' E 135°08'0 0.0
2017-Jan-13 03:32N 34°14' E 135°08'0 0.0
2017-Jan-13 02:32N 34°14' E 135°08'0 0.0
2017-Jan-13 01:32N 34°14' E 135°08'0 0.0
2017-Jan-13 00:32N 34°14' E 135°08'0 0.0
2017-Jan-12 23:32N 34°14' E 135°08'0 0.0
2017-Jan-12 22:31N 34°14' E 135°08'2 2.3
2017-Jan-12 21:33N 34°15' E 135°05'0 0.2
2017-Jan-12 20:33N 34°15' E 135°06'0 0.0
2017-Jan-12 19:30N 34°15' E 135°06'0 0.0
2017-Jan-12 18:33N 34°15' E 135°06'0 0.0
2017-Jan-12 17:33N 34°15' E 135°06'5 4.7
2017-Jan-12 16:33N 34°11' E 135°03'  
Track history (hours):
 
Tides and Currents Weather Stations Pressure Air Temp Water Temp Dewpoint Dewpoint Depression Visibility Wind Speed Wind Dir Waves Ship Positions

Taiseimaru

Last reported at 2017-Jan-21 05:24 UTC. Time now 2017-Jan-24 11:23 UTC.
Position N 34°04' E 134°59'.

Length 84 m; draft 4.7 m.

Type: Cargo ship. MMSI: 431500568.

Date/timePositionNaut miles runAvg speedWind from/ knotsBaromVisibWave heightAir tempDewpointWater temp
2017-Jan-21 05:24N 34°04' E 134°59'1112.4
2017-Jan-21 04:33N 34°14' E 135°05'2 2.1
2017-Jan-21 03:32N 34°14' E 135°08'0 0.0
2017-Jan-21 02:26N 34°14' E 135°08'0 0.0
2017-Jan-21 01:26N 34°14' E 135°08'0 0.0
2017-Jan-21 00:32N 34°14' E 135°08'0 0.0
2017-Jan-20 23:32N 34°14' E 135°08'0 0.0
2017-Jan-20 22:33N 34°14' E 135°08'4 3.9
2017-Jan-20 21:33N 34°10' E 135°08'0 0.2
2017-Jan-20 20:33N 34°10' E 135°09'0 0.0
2017-Jan-20 19:30N 34°10' E 135°09'0 0.0
2017-Jan-20 18:33N 34°10' E 135°09'0 0.0
2017-Jan-20 17:33N 34°10' E 135°09'0 0.0
2017-Jan-20 16:33N 34°10' E 135°09'0 0.0
2017-Jan-20 15:30N 34°10' E 135°09'0 0.0
2017-Jan-20 14:27N 34°10' E 135°09'1 0.7
2017-Jan-20 13:33N 34°10' E 135°08'4 4.3
2017-Jan-20 12:33N 34°14' E 135°07'1110.1
2017-Jan-20 11:30N 34°05' E 134°60'  
2017-Jan-18 03:31N 34°05' E 134°60'1111.0
2017-Jan-18 02:33N 34°14' E 135°07'1 1.1
2017-Jan-18 01:32N 34°14' E 135°08'0 0.0
2017-Jan-18 00:32N 34°14' E 135°08'0 0.0
2017-Jan-17 23:32N 34°14' E 135°08'0 0.0
2017-Jan-17 22:32N 34°14' E 135°08'0 0.0
2017-Jan-17 21:32N 34°14' E 135°08'0 0.0
2017-Jan-17 20:32N 34°14' E 135°08'0 0.0
2017-Jan-17 19:32N 34°14' E 135°08'0 0.0
2017-Jan-17 18:32N 34°14' E 135°08'0 0.0
2017-Jan-17 17:32N 34°14' E 135°08'1 1.2
2017-Jan-17 16:33N 34°14' E 135°07'1 1.3
2017-Jan-17 15:33N 34°15' E 135°05'0 0.0
2017-Jan-17 14:30N 34°15' E 135°05'0 0.0
2017-Jan-17 13:12N 34°15' E 135°05'0 0.0
2017-Jan-17 12:33N 34°15' E 135°05'0 0.1
2017-Jan-17 11:33N 34°15' E 135°05'7 6.7
2017-Jan-17 10:33N 34°09' E 135°02'7 0.2
2017-Jan-16 02:34N 34°03' E 134°58'1212.1
2017-Jan-16 01:33N 34°13' E 135°05'3 2.6
2017-Jan-16 00:32N 34°14' E 135°08'0 0.0
2017-Jan-15 23:32N 34°14' E 135°08'0 0.0
2017-Jan-15 22:32N 34°14' E 135°08'0 0.0
2017-Jan-15 21:32N 34°14' E 135°08'0 0.0
2017-Jan-15 20:32N 34°14' E 135°08'0 0.0
2017-Jan-15 19:32N 34°14' E 135°08'0 0.0
2017-Jan-15 18:32N 34°14' E 135°08'0 0.0
2017-Jan-15 17:32N 34°14' E 135°08'0 0.0
2017-Jan-15 16:32N 34°14' E 135°08'0 0.3
2017-Jan-15 15:33N 34°14' E 135°08'2 1.6
2017-Jan-15 14:31N 34°15' E 135°06'0 0.0
2017-Jan-15 13:34N 34°15' E 135°06'0 0.0
2017-Jan-15 12:24N 34°15' E 135°06'0 0.0
2017-Jan-15 11:33N 34°15' E 135°06'0 0.0
2017-Jan-15 10:33N 34°15' E 135°06'0 0.0
2017-Jan-15 09:30N 34°15' E 135°06'0 0.0
2017-Jan-15 08:33N 34°15' E 135°06'0 0.0
2017-Jan-15 07:30N 34°15' E 135°06'0 0.0
2017-Jan-15 06:24N 34°15' E 135°06'0 0.1
2017-Jan-15 05:33N 34°15' E 135°06'0 0.0
2017-Jan-15 04:27N 34°15' E 135°06'0 0.0
2017-Jan-15 03:30N 34°15' E 135°06'0 0.0
2017-Jan-15 02:33N 34°15' E 135°06'0 0.0
2017-Jan-15 01:33N 34°15' E 135°06'2 2.1
2017-Jan-15 00:33N 34°13' E 135°07'1 0.9
2017-Jan-14 23:33N 34°13' E 135°08'3 3.0
2017-Jan-14 22:33N 34°15' E 135°06'0 0.1
2017-Jan-14 21:32N 34°15' E 135°06'0 0.0
2017-Jan-14 20:32N 34°15' E 135°06'0 0.0
2017-Jan-14 19:32N 34°15' E 135°06'0 0.0
2017-Jan-14 18:29N 34°15' E 135°06'0 0.0
2017-Jan-14 17:34N 34°15' E 135°06'8 8.0
2017-Jan-14 16:33N 34°08' E 135°01'4 0.1
2017-Jan-13 07:29N 34°04' E 134°59'1212.4
2017-Jan-13 06:33N 34°14' E 135°05'2 2.2
2017-Jan-13 05:32N 34°14' E 135°08'0 0.0
2017-Jan-13 04:32N 34°14' E 135°08'0 0.0
2017-Jan-13 03:32N 34°14' E 135°08'0 0.0
2017-Jan-13 02:32N 34°14' E 135°08'0 0.0
2017-Jan-13 01:32N 34°14' E 135°08'0 0.0
2017-Jan-13 00:32N 34°14' E 135°08'0 0.0
2017-Jan-12 23:32N 34°14' E 135°08'0 0.0
2017-Jan-12 22:31N 34°14' E 135°08'2 2.3
2017-Jan-12 21:33N 34°15' E 135°05'0 0.2
2017-Jan-12 20:33N 34°15' E 135°06'0 0.0
2017-Jan-12 19:30N 34°15' E 135°06'0 0.0
2017-Jan-12 18:33N 34°15' E 135°06'0 0.0
2017-Jan-12 17:33N 34°15' E 135°06'5 4.7
2017-Jan-12 16:33N 34°11' E 135°03'  

Dump ship's entire track history